Time;durP1;ratioP1;P1;durP2;ratioP2;P2;SDS_P1;SDS_P2;PMS_P1;PMS_P2;Temp;Humidity;BMP_temperature;BMP_pressure;BME280_temperature;BME280_humidity;BME280_pressure;Samples;Min_cycle;Max_cycle;Signal;HPM_P1;HPM_P2
2022/11/12 00:00:04;;;;;;;25.52;12.18;;;8.30;99.90;;;;;;6253610;22;20028;-87
2022/11/12 00:02:48;;;;;;;19.92;11.73;;;8.30;99.90;;;;;;6272991;22;20024;-87
2022/11/12 00:05:33;;;;;;;20.55;11.60;;;8.30;99.90;;;;;;6269487;22;20047;-87
2022/11/12 00:08:18;;;;;;;22.15;11.02;;;8.20;99.90;;;;;;6253329;22;20060;-89
2022/11/12 00:11:04;;;;;;;20.60;11.30;;;8.20;99.90;;;;;;6253096;22;20066;-88
2022/11/12 00:13:48;;;;;;;23.83;10.48;;;8.20;99.90;;;;;;6273187;22;20003;-86
2022/11/12 00:16:36;;;;;;;14.05;9.13;;;8.10;99.90;;;;;;6243389;23;20042;-87
2022/11/12 00:19:21;;;;;;;16.75;9.18;;;8.10;99.90;;;;;;6266077;23;20034;-85
2022/11/12 00:22:06;;;;;;;16.95;10.15;;;8.00;99.90;;;;;;6265513;23;20115;-88
2022/11/12 00:24:50;;;;;;;17.67;10.25;;;8.00;99.90;;;;;;6241011;23;20031;-86
2022/11/12 00:27:38;;;;;;;16.67;9.75;;;8.00;99.90;;;;;;6240851;23;20015;-86
2022/11/12 00:30:23;;;;;;;16.20;9.77;;;7.90;99.90;;;;;;6244412;22;20015;-86
2022/11/12 00:33:08;;;;;;;21.17;9.63;;;7.90;99.90;;;;;;6275505;22;20018;-87
2022/11/12 00:35:52;;;;;;;15.85;9.73;;;7.80;99.90;;;;;;6238666;23;20074;-85
2022/11/12 00:38:37;;;;;;;17.88;9.70;;;7.80;99.90;;;;;;6275714;22;20007;-82
2022/11/12 00:41:24;;;;;;;18.33;10.25;;;7.80;99.90;;;;;;6276190;22;20067;-88
2022/11/12 00:44:14;;;;;;;18.27;10.10;;;7.70;99.90;;;;;;6253801;22;20056;-89
2022/11/12 00:46:59;;;;;;;16.70;9.55;;;7.70;99.90;;;;;;6253297;22;20007;-87
2022/11/12 00:49:51;;;;;;;17.30;9.47;;;7.70;99.90;;;;;;6252534;22;20022;-87
2022/11/12 00:52:35;;;;;;;15.95;9.07;;;7.70;99.90;;;;;;6249875;23;20327;-84
2022/11/12 00:55:20;;;;;;;14.32;8.95;;;7.60;99.90;;;;;;6247020;23;20023;-86
2022/11/12 00:58:05;;;;;;;15.13;8.70;;;7.60;99.90;;;;;;6267295;23;20023;-85
2022/11/12 01:00:49;;;;;;;17.08;9.40;;;7.50;99.90;;;;;;6270034;23;20080;-85
2022/11/12 01:03:36;;;;;;;17.58;8.90;;;7.50;99.90;;;;;;6252395;22;20067;-85
2022/11/12 01:06:22;;;;;;;16.55;9.05;;;7.50;99.90;;;;;;6274682;22;20011;-86
2022/11/12 01:09:08;;;;;;;17.25;9.18;;;7.40;99.90;;;;;;6252563;22;20063;-87
2022/11/12 01:11:52;;;;;;;17.70;8.90;;;7.40;99.90;;;;;;6273318;22;20318;-86
2022/11/12 01:14:37;;;;;;;16.73;9.10;;;7.40;99.90;;;;;;6273438;22;20031;-85
2022/11/12 01:17:22;;;;;;;17.80;9.93;;;7.40;99.90;;;;;;6274547;22;20023;-85
2022/11/12 01:20:07;;;;;;;16.00;9.45;;;7.30;99.90;;;;;;6251624;23;20011;-86
2022/11/12 01:22:51;;;;;;;13.98;8.30;;;7.30;99.90;;;;;;6274911;22;20043;-87
2022/11/12 01:25:38;;;;;;;12.93;8.55;;;7.30;99.90;;;;;;6274644;22;20018;-85
2022/11/12 01:28:22;;;;;;;14.13;7.78;;;7.30;99.90;;;;;;6274517;22;20042;-84
2022/11/12 01:31:20;;;;;;;16.10;8.65;;;7.30;99.90;;;;;;6252460;23;20155;-85
2022/11/12 01:34:07;;;;;;;12.60;8.32;;;7.30;99.90;;;;;;6274141;23;20026;-85
2022/11/12 01:36:52;;;;;;;19.15;9.85;;;7.40;99.90;;;;;;6258354;22;20027;-79
2022/11/12 01:39:36;;;;;;;15.82;9.35;;;7.30;99.90;;;;;;6247155;23;20055;-79
2022/11/12 01:42:24;;;;;;;14.45;9.30;;;7.40;99.90;;;;;;6248545;23;20066;-79
2022/11/12 01:45:14;;;;;;;14.50;8.40;;;7.40;99.90;;;;;;6248846;23;20117;-79
2022/11/12 01:47:59;;;;;;;18.73;9.60;;;7.40;99.90;;;;;;6223053;23;20067;-78
2022/11/12 01:50:44;;;;;;;16.85;8.30;;;7.30;99.90;;;;;;6219719;23;20039;-78
2022/11/12 01:53:32;;;;;;;19.42;9.98;;;7.40;99.90;;;;;;6221273;23;20059;-79
2022/11/12 01:56:19;;;;;;;14.38;9.05;;;7.30;99.90;;;;;;6222715;23;20396;-79
2022/11/12 01:59:09;;;;;;;19.40;9.20;;;7.30;99.90;;;;;;6221084;23;20044;-79
2022/11/12 02:01:53;;;;;;;16.48;9.10;;;7.30;99.90;;;;;;6228603;23;20026;-78
2022/11/12 02:04:41;;;;;;;16.50;10.10;;;7.30;99.90;;;;;;6231686;23;20131;-77
2022/11/12 02:07:26;;;;;;;20.58;10.10;;;7.20;99.90;;;;;;6232558;23;20023;-78
2022/11/12 02:10:10;;;;;;;15.70;9.63;;;7.20;99.90;;;;;;6228163;23;20019;-79
2022/11/12 02:15:59;;;;;;;16.83;9.27;;;7.20;99.90;;;;;;6225902;23;20032;-79
2022/11/12 02:18:43;;;;;;;13.63;8.02;;;7.20;99.90;;;;;;6226872;23;20055;-79
2022/11/12 02:21:28;;;;;;;12.50;7.85;;;7.20;99.90;;;;;;6225956;23;20083;-79
2022/11/12 02:24:12;;;;;;;;;;;7.20;99.90;;;;;;6223542;23;20542;-77
2022/11/12 02:26:58;;;;;;;11.85;7.38;;;7.20;99.90;;;;;;6224276;23;20151;-77
2022/11/12 02:29:45;;;;;;;14.57;8.00;;;7.20;99.90;;;;;;6231134;23;20093;-79
2022/11/12 02:32:29;;;;;;;13.55;7.80;;;7.10;99.90;;;;;;6227351;23;20497;-79
2022/11/12 02:35:14;;;;;;;16.65;8.02;;;7.20;99.90;;;;;;6223483;23;20062;-77
2022/11/12 02:37:59;;;;;;;10.30;6.25;;;7.20;99.90;;;;;;6225481;23;20027;-79
2022/11/12 02:40:43;;;;;;;9.98;6.40;;;7.20;99.90;;;;;;6225211;23;20075;-79
2022/11/12 02:43:27;;;;;;;10.57;6.82;;;7.10;99.90;;;;;;6231251;23;20047;-79
2022/11/12 02:46:12;;;;;;;9.57;6.20;;;7.20;99.90;;;;;;6227253;23;20020;-79
2022/11/12 02:48:56;;;;;;;11.15;6.55;;;7.20;99.90;;;;;;6224629;23;20019;-80
2022/11/12 02:51:40;;;;;;;10.07;5.75;;;7.20;99.90;;;;;;6226074;23;20084;-80
2022/11/12 02:54:25;;;;;;;11.27;6.63;;;7.30;99.90;;;;;;6224183;23;20027;-80
2022/11/12 02:57:09;;;;;;;9.05;5.20;;;7.40;99.90;;;;;;6223378;23;20023;-80
2022/11/12 02:59:54;;;;;;;7.47;5.00;;;7.30;99.90;;;;;;6222494;23;20469;-80
2022/11/12 03:02:41;;;;;;;10.05;5.82;;;7.40;99.90;;;;;;6225112;23;20580;-80
2022/11/12 03:05:27;;;;;;;8.70;5.40;;;7.50;99.90;;;;;;6223610;23;20020;-79
2022/11/12 03:08:11;;;;;;;8.77;5.10;;;7.50;99.90;;;;;;6222210;23;20019;-80
2022/11/12 03:10:55;;;;;;;6.90;4.97;;;7.60;99.90;;;;;;6224312;23;20354;-79
2022/11/12 03:13:40;;;;;;;7.37;4.47;;;7.60;99.90;;;;;;6224678;23;20019;-79
2022/11/12 03:16:25;;;;;;;10.25;5.18;;;7.70;99.90;;;;;;6231296;23;20486;-78
2022/11/12 03:19:09;;;;;;;;;;;7.70;99.90;;;;;;6222437;23;20043;-80
2022/11/12 03:21:54;;;;;;;8.88;4.32;;;7.70;99.90;;;;;;6221594;23;19930;-79
2022/11/12 03:24:39;;;;;;;6.43;4.75;;;7.70;99.90;;;;;;6225974;23;20027;-81
2022/11/12 03:27:23;;;;;;;9.80;5.15;;;7.80;99.90;;;;;;6226578;23;20059;-79
2022/11/12 03:30:07;;;;;;;6.80;4.20;;;7.80;99.90;;;;;;6224478;23;20347;-80
2022/11/12 03:32:51;;;;;;;6.95;4.50;;;7.80;99.90;;;;;;6222555;23;20024;-79
2022/11/12 03:35:37;;;;;;;8.27;5.10;;;7.70;99.90;;;;;;6225654;23;20031;-80
2022/11/12 03:38:22;;;;;;;9.77;5.13;;;7.70;99.90;;;;;;6225384;23;20035;-78
2022/11/12 03:41:07;;;;;;;13.25;7.00;;;7.70;99.90;;;;;;6230231;23;20132;-78
2022/11/12 03:43:51;;;;;;;12.05;8.20;;;7.60;99.90;;;;;;6229123;23;20036;-79
2022/11/12 03:46:35;;;;;;;18.52;8.85;;;7.60;99.90;;;;;;6225915;23;20075;-78
2022/11/12 03:49:19;;;;;;;13.82;8.50;;;7.50;99.90;;;;;;6227458;23;20100;-79
2022/11/12 03:52:03;;;;;;;17.75;9.35;;;7.50;99.90;;;;;;6231553;23;20551;-79
2022/11/12 03:54:48;;;;;;;16.50;9.10;;;7.40;99.90;;;;;;6232817;23;20035;-79
2022/11/12 03:57:33;;;;;;;14.35;8.88;;;7.30;99.90;;;;;;6227889;23;20019;-80
2022/11/12 04:00:19;;;;;;;14.52;8.07;;;7.30;99.90;;;;;;6232636;23;20068;-79
2022/11/12 04:03:03;;;;;;;16.65;9.02;;;7.20;99.90;;;;;;6232935;23;20114;-80
2022/11/12 04:08:50;;;;;;;17.55;8.95;;;7.10;99.90;;;;;;6221240;23;20408;-79
2022/11/12 04:11:35;;;;;;;17.10;9.02;;;7.10;99.90;;;;;;6219690;23;20016;-79
2022/11/12 04:14:20;;;;;;;17.35;9.20;;;7.00;99.90;;;;;;6224179;23;20019;-79
2022/11/12 04:23:11;;;;;;;17.30;9.23;;;6.90;99.90;;;;;;6230119;23;20024;-80
2022/11/12 04:32:02;;;;;;;17.65;9.52;;;6.80;99.90;;;;;;6225941;23;20069;-80
2022/11/12 04:34:46;;;;;;;15.40;9.38;;;6.70;99.90;;;;;;6223160;23;20027;-80
2022/11/12 04:37:43;;;;;;;15.07;9.18;;;6.70;99.90;;;;;;6224726;23;20023;-80
2022/11/12 04:46:33;;;;;;;15.80;9.02;;;6.70;99.90;;;;;;6229790;23;20023;-79
2022/11/12 04:49:18;;;;;;;13.40;6.57;;;6.70;99.90;;;;;;6226874;23;20039;-80
2022/11/12 04:52:05;;;;;;;12.02;6.70;;;6.70;99.90;;;;;;6229905;23;20023;-78
2022/11/12 04:54:50;;;;;;;10.52;6.93;;;6.70;99.90;;;;;;6229858;23;20016;-80
2022/11/12 04:57:36;;;;;;;9.27;6.10;;;6.60;99.90;;;;;;6229767;23;20072;-79
2022/11/12 05:00:20;;;;;;;9.60;5.85;;;6.60;99.90;;;;;;6228189;23;20044;-79
2022/11/12 05:03:05;;;;;;;9.48;5.43;;;6.60;99.90;;;;;;6232762;23;20104;-80
2022/11/12 05:05:49;;;;;;;12.32;4.97;;;6.60;99.90;;;;;;6238274;23;20025;-79
2022/11/12 05:08:34;;;;;;;8.23;5.15;;;6.60;99.90;;;;;;6239785;23;20016;-78
2022/11/12 05:11:18;;;;;;;10.48;5.75;;;6.60;99.90;;;;;;6239514;23;20019;-78
2022/11/12 05:14:04;;;;;;;9.40;5.82;;;6.60;99.90;;;;;;6232632;23;20020;-80
2022/11/12 05:16:50;;;;;;;8.90;5.50;;;6.50;99.90;;;;;;6230478;23;20100;-80
2022/11/12 05:19:35;;;;;;;;;;;6.50;99.90;;;;;;6234182;23;20023;-80
2022/11/12 05:22:19;;;;;;;9.75;5.93;;;6.50;99.90;;;;;;6232248;23;19934;-79
2022/11/12 05:25:04;;;;;;;10.87;6.63;;;6.40;99.90;;;;;;6236428;23;20015;-78
2022/11/12 05:27:49;;;;;;;9.43;5.72;;;6.30;99.90;;;;;;6225353;23;20036;-77
2022/11/12 05:30:33;;;;;;;10.02;5.95;;;6.30;99.90;;;;;;6229576;23;20023;-79
2022/11/12 05:33:17;;;;;;;11.03;6.63;;;6.20;99.90;;;;;;6226030;23;20031;-78
2022/11/12 05:36:01;;;;;;;9.57;6.22;;;6.20;99.90;;;;;;6224825;23;20126;-80
2022/11/12 05:38:46;;;;;;;12.38;6.65;;;6.20;99.90;;;;;;6231519;23;20039;-78
2022/11/12 05:41:30;;;;;;;12.32;6.75;;;6.10;99.90;;;;;;6229039;23;20020;-78
2022/11/12 05:44:15;;;;;;;15.07;7.35;;;6.10;99.90;;;;;;6224751;23;20023;-79
2022/11/12 05:46:59;;;;;;;11.02;6.18;;;6.10;99.90;;;;;;6223142;23;20019;-79
2022/11/12 05:49:43;;;;;;;9.00;5.93;;;6.10;99.90;;;;;;6222224;23;20018;-79
2022/11/12 05:52:28;;;;;;;10.32;6.45;;;6.10;99.90;;;;;;6223653;23;20018;-79
2022/11/12 05:55:13;;;;;;;9.63;6.13;;;6.00;99.90;;;;;;6222941;23;20537;-78
2022/11/12 05:58:03;;;;;;;10.85;5.93;;;6.00;99.90;;;;;;6223352;23;20091;-78
2022/11/12 06:00:48;;;;;;;12.02;6.68;;;6.00;99.90;;;;;;6223723;23;20027;-80
2022/11/12 06:03:32;;;;;;;11.15;6.90;;;6.00;99.90;;;;;;6223246;23;20481;-78
2022/11/12 06:06:17;;;;;;;13.23;6.72;;;6.00;99.90;;;;;;6226887;23;20019;-79
2022/11/12 06:09:03;;;;;;;11.15;6.65;;;6.00;99.90;;;;;;6226811;23;20038;-79
2022/11/12 06:11:47;;;;;;;15.18;6.95;;;6.00;99.90;;;;;;6226222;23;20059;-80
2022/11/12 06:14:31;;;;;;;12.10;6.68;;;6.00;99.90;;;;;;6228631;23;20027;-79
2022/11/12 06:17:15;;;;;;;9.68;6.40;;;6.00;99.90;;;;;;6223699;23;20024;-78
2022/11/12 06:20:00;;;;;;;9.85;5.65;;;6.00;99.90;;;;;;6226260;23;20027;-79
2022/11/12 06:22:44;;;;;;;11.38;6.88;;;6.10;99.90;;;;;;6230812;23;20024;-79
2022/11/12 06:25:29;;;;;;;11.75;6.75;;;6.10;99.90;;;;;;6226743;23;20062;-78
2022/11/12 06:28:13;;;;;;;10.83;6.60;;;6.10;99.90;;;;;;6225621;23;20045;-79
2022/11/12 06:31:01;;;;;;;13.40;6.90;;;6.10;99.90;;;;;;6224764;23;20035;-80
2022/11/12 06:33:46;;;;;;;13.35;7.05;;;6.20;99.90;;;;;;6222145;23;20024;-78
2022/11/12 06:36:31;;;;;;;10.40;6.50;;;6.30;99.90;;;;;;6244323;23;20450;-80
2022/11/12 06:39:15;;;;;;;15.02;7.63;;;6.40;99.90;;;;;;6224137;23;20027;-80
2022/11/12 06:42:00;;;;;;;11.45;6.72;;;6.40;99.90;;;;;;6226890;23;20042;-79
2022/11/12 06:44:45;;;;;;;12.38;6.68;;;6.40;99.90;;;;;;6227800;23;20038;-81
2022/11/12 06:47:30;;;;;;;8.35;5.65;;;6.40;99.90;;;;;;6227532;23;20461;-79
2022/11/12 06:50:15;;;;;;;10.07;6.20;;;6.50;99.90;;;;;;6241085;23;20077;-79
2022/11/12 06:52:59;;;;;;;9.77;6.03;;;6.50;99.90;;;;;;6241086;23;20051;-84
2022/11/12 06:55:43;;;;;;;11.35;6.22;;;6.50;99.90;;;;;;6241927;23;20043;-79
2022/11/12 06:58:29;;;;;;;11.32;6.78;;;6.60;99.90;;;;;;6240556;23;20055;-79
2022/11/12 07:01:15;;;;;;;14.85;6.40;;;6.70;99.90;;;;;;6240562;23;20042;-81
2022/11/12 07:04:00;;;;;;;10.80;6.47;;;6.70;99.90;;;;;;6238899;23;20023;-81
2022/11/12 07:06:44;;;;;;;11.10;6.85;;;6.80;99.90;;;;;;6239496;23;20079;-80
2022/11/12 07:09:29;;;;;;;10.40;6.75;;;6.90;99.90;;;;;;6240210;23;20023;-80
2022/11/12 07:12:13;;;;;;;9.65;6.18;;;6.90;99.90;;;;;;6241365;23;20082;-79
2022/11/12 07:14:57;;;;;;;11.15;6.53;;;7.00;99.90;;;;;;6240866;23;20015;-80
2022/11/12 07:17:44;;;;;;;11.10;6.47;;;7.10;99.90;;;;;;6239609;23;20035;-79
2022/11/12 07:20:29;;;;;;;11.68;7.38;;;7.10;99.90;;;;;;6239910;23;20158;-79
2022/11/12 07:23:13;;;;;;;10.55;6.40;;;7.20;99.90;;;;;;6230329;23;20067;-80
2022/11/12 07:25:57;;;;;;;11.57;6.88;;;7.30;99.90;;;;;;6231307;23;20038;-80
2022/11/12 07:28:42;;;;;;;11.60;6.57;;;7.30;99.90;;;;;;6236522;23;20069;-80
2022/11/12 07:31:26;;;;;;;9.77;6.45;;;7.40;99.90;;;;;;6261586;23;20008;-80
2022/11/12 07:34:11;;;;;;;12.90;6.80;;;7.50;99.90;;;;;;6241605;23;20072;-81
2022/11/12 07:36:56;;;;;;;8.73;5.53;;;7.50;99.90;;;;;;6240629;23;20071;-81
2022/11/12 07:39:41;;;;;;;15.85;7.38;;;7.70;99.90;;;;;;6240205;23;20016;-81
2022/11/12 07:42:25;;;;;;;9.80;5.90;;;7.70;99.90;;;;;;6239766;22;20023;-87
2022/11/12 07:45:10;;;;;;;13.00;6.18;;;7.70;99.90;;;;;;6264544;23;20054;-88
2022/11/12 07:47:58;;;;;;;10.77;5.90;;;7.80;99.90;;;;;;6242873;23;20086;-87
2022/11/12 07:50:42;;;;;;;11.50;6.13;;;7.90;99.90;;;;;;6273158;22;20034;-87
2022/11/12 07:53:30;;;;;;;11.70;5.22;;;7.90;99.90;;;;;;6271776;22;20023;-87
2022/11/12 07:56:18;;;;;;;11.65;5.80;;;8.10;99.90;;;;;;6265851;23;20038;-86
2022/11/12 07:59:03;;;;;;;11.15;5.57;;;8.20;99.90;;;;;;6265045;23;20031;-89
2022/11/12 08:04:39;;;;;;;7.78;5.07;;;8.30;99.90;;;;;;6261820;22;20031;-87
2022/11/12 08:07:26;;;;;;;6.80;4.75;;;8.40;99.90;;;;;;6241817;23;20018;-86
2022/11/12 08:10:10;;;;;;;9.52;5.20;;;8.40;99.90;;;;;;6239535;23;20022;-86
2022/11/12 08:13:04;;;;;;;9.77;4.75;;;8.60;99.90;;;;;;6243270;23;20023;-88
2022/11/12 08:15:54;;;;;;;7.80;4.85;;;8.90;99.90;;;;;;6268007;23;20034;-86
2022/11/12 08:19:26;;;;;;;9.05;4.43;;;9.30;99.90;;;;;;6270310;22;20072;-87
2022/11/12 08:22:27;;;;;;;6.40;4.00;;;10.00;99.90;;;;;;6240245;22;20027;-87
2022/11/12 08:25:27;;;;;;;5.10;4.13;;;10.90;99.90;;;;;;6253123;23;20022;-88
2022/11/12 08:28:43;;;;;;;7.63;4.53;;;12.20;99.90;;;;;;6252573;22;20010;-86
2022/11/12 08:31:55;;;;;;;7.47;3.70;;;12.80;99.90;;;;;;6249939;23;20023;-87
2022/11/12 08:35:18;;;;;;;6.88;3.45;;;13.50;99.90;;;;;;6251479;23;20011;-87
2022/11/12 08:45:08;;;;;;;8.70;3.50;;;15.20;99.90;;;;;;6179596;22;19945;-89
2022/11/12 08:49:06;;;;;;;5.07;3.40;;;16.00;99.90;;;;;;6248804;23;20030;-87
2022/11/12 08:58:21;;;;;;;;;;;;;;;;;;;;;
2022/11/12 09:01:08;;;;;;;5.80;3.80;;;18.10;99.90;;;;;;6265084;22;20014;-85
2022/11/12 09:04:10;;;;;;;7.38;3.08;;;18.10;99.10;;;;;;6252215;22;20019;-87
2022/11/12 09:11:19;;;;;;;5.90;3.08;;;19.70;96.40;;;;;;6262744;22;20031;-87
2022/11/12 09:14:59;;;;;;;3.92;2.90;;;20.70;94.60;;;;;;6208678;22;20137;-86
2022/11/12 09:18:12;;;;;;;5.20;3.15;;;21.10;93.50;;;;;;6122420;23;20071;-88
2022/11/12 09:21:23;;;;;;;5.35;2.92;;;21.60;91.70;;;;;;6118919;23;20034;-89
2022/11/12 09:27:39;;;;;;;3.72;2.90;;;21.30;91.30;;;;;;6205916;23;20012;-85
2022/11/12 09:30:24;;;;;;;10.50;3.38;;;21.40;90.70;;;;;;6212750;23;20032;-89
2022/11/12 09:33:12;;;;;;;5.35;2.92;;;21.40;90.40;;;;;;6211442;23;20024;-87
2022/11/12 09:36:00;;;;;;;5.35;3.13;;;21.80;90.00;;;;;;6210837;23;20024;-87
2022/11/12 09:38:45;;;;;;;5.22;3.20;;;22.40;88.50;;;;;;6208644;23;20048;-88
2022/11/12 09:41:38;;;;;;;4.45;3.53;;;23.00;87.10;;;;;;6206481;23;20327;-88
2022/11/12 09:44:23;;;;;;;5.20;3.22;;;23.30;84.80;;;;;;6207341;23;20012;-88
2022/11/12 09:47:11;;;;;;;;;;;23.10;84.70;;;;;;6203778;23;20020;-88
2022/11/12 09:50:14;;;;;;;4.38;2.97;;;23.10;83.80;;;;;;6204050;23;19903;-89
2022/11/12 09:53:10;;;;;;;8.70;3.22;;;23.20;83.40;;;;;;6209856;23;20036;-88
2022/11/12 09:55:55;;;;;;;4.70;2.65;;;23.30;81.60;;;;;;6211833;23;20012;-89
2022/11/12 09:58:40;;;;;;;6.38;3.17;;;23.60;81.00;;;;;;6210810;23;20048;-88
2022/11/12 10:01:38;;;;;;;6.60;3.42;;;24.00;79.60;;;;;;6209042;23;20047;-86
2022/11/12 10:05:12;;;;;;;5.45;3.22;;;25.10;76.90;;;;;;6207765;23;20028;-89
2022/11/12 10:23:42;;;;;;;5.25;2.38;;;26.60;70.00;;;;;;6141982;23;20024;-88
2022/11/12 10:27:03;;;;;;;;;;;;;;;;;;;;;
2022/11/12 10:30:43;;;;;;;6.45;2.30;;;27.50;67.60;;;;;;6202846;23;20518;-88
2022/11/12 10:45:13;;;;;;;5.22;2.78;;;27.90;64.70;;;;;;6138436;23;20020;-89
2022/11/12 10:47:58;;;;;;;3.05;2.50;;;27.20;64.10;;;;;;6156533;23;20020;-88
2022/11/12 11:00:35;;;;;;;4.18;2.40;;;27.50;63.40;;;;;;6261389;22;20034;-89
2022/11/12 11:04:13;;;;;;;4.93;2.85;;;28.00;63.00;;;;;;6255897;22;20467;-87
2022/11/12 11:07:24;;;;;;;5.45;2.42;;;27.90;62.40;;;;;;6231579;23;20549;-89
2022/11/12 11:20:04;;;;;;;5.57;2.70;;;27.30;62.50;;;;;;6246451;22;20027;-89
2022/11/12 11:51:16;;;;;;;6.78;2.53;;;24.80;63.10;;;;;;6247632;22;20015;-87
2022/11/12 12:02:19;;;;;;;8.57;2.50;;;19.90;71.60;;;;;;6275326;22;20072;-86
2022/11/12 12:05:26;;;;;;;5.50;2.95;;;18.90;74.30;;;;;;6222944;23;20119;-86
2022/11/12 12:08:14;;;;;;;5.05;2.60;;;18.20;76.70;;;;;;6222524;23;20346;-86
2022/11/12 12:11:02;;;;;;;5.85;3.10;;;17.60;79.20;;;;;;6223050;23;20032;-85
2022/11/12 12:14:18;;;;;;;6.60;3.50;;;17.30;80.80;;;;;;6214786;23;20062;-87
2022/11/12 12:17:13;;;;;;;;;;;17.00;82.40;;;;;;6213701;23;20024;-87
2022/11/12 12:20:40;;;;;;;5.07;2.83;;;16.70;84.20;;;;;;6208624;23;19985;-88
2022/11/12 12:23:40;;;;;;;7.22;3.20;;;16.40;85.80;;;;;;6130781;23;20032;-89
2022/11/12 12:26:37;;;;;;;7.10;3.90;;;16.20;87.40;;;;;;6233280;23;20023;-88
2022/11/12 12:29:25;;;;;;;4.75;2.60;;;16.00;88.50;;;;;;6213504;23;20079;-87
2022/11/12 12:32:41;;;;;;;6.82;3.35;;;15.80;90.20;;;;;;6215569;23;20068;-88
2022/11/12 12:35:37;;;;;;;4.78;3.22;;;15.60;91.20;;;;;;6196406;23;20023;-86
2022/11/12 12:38:57;;;;;;;6.75;3.33;;;15.50;92.70;;;;;;6213523;23;20043;-89
2022/11/12 12:41:58;;;;;;;8.20;3.53;;;15.20;94.20;;;;;;6215492;23;20047;-88
2022/11/12 12:45:03;;;;;;;6.50;3.42;;;15.10;94.90;;;;;;6221096;23;20036;-85
2022/11/12 12:47:52;;;;;;;6.35;3.65;;;15.00;95.70;;;;;;6220949;23;20031;-86
2022/11/12 12:50:42;;;;;;;6.13;3.72;;;14.80;96.60;;;;;;6218782;23;20035;-88
2022/11/12 12:53:26;;;;;;;6.70;3.10;;;14.70;97.50;;;;;;6216806;23;20059;-86
2022/11/12 12:56:29;;;;;;;6.68;3.17;;;14.60;98.30;;;;;;6239974;23;20043;-89
2022/11/12 12:59:20;;;;;;;6.82;3.45;;;14.60;98.70;;;;;;6241430;23;20023;-86
2022/11/12 13:02:20;;;;;;;6.85;3.47;;;14.50;99.30;;;;;;6240950;23;20027;-87
2022/11/12 13:05:05;;;;;;;7.05;3.22;;;14.50;99.40;;;;;;6214310;23;20062;-88
2022/11/12 13:07:51;;;;;;;5.55;2.80;;;14.50;99.30;;;;;;6236280;23;20028;-91
2022/11/12 13:10:38;;;;;;;7.32;3.50;;;14.50;99.10;;;;;;6214516;23;20047;-87
2022/11/12 13:13:28;;;;;;;5.22;2.80;;;14.50;99.10;;;;;;6241471;23;20023;-84
2022/11/12 13:16:59;;;;;;;4.65;2.78;;;14.40;99.30;;;;;;6243103;23;20012;-86
2022/11/12 13:20:17;;;;;;;7.78;2.80;;;14.40;99.20;;;;;;6205792;23;20051;-85
2022/11/12 13:23:04;;;;;;;10.20;3.05;;;14.40;99.20;;;;;;6219551;23;20054;-85
2022/11/12 13:25:48;;;;;;;5.53;2.65;;;14.40;99.10;;;;;;6243750;23;20035;-84
2022/11/12 13:28:33;;;;;;;6.00;3.30;;;14.40;99.30;;;;;;6221303;23;20031;-84
2022/11/12 13:31:28;;;;;;;5.03;2.65;;;14.30;99.70;;;;;;6222434;23;20065;-84
2022/11/12 13:34:29;;;;;;;6.37;2.60;;;14.30;98.90;;;;;;6222441;23;20036;-85
2022/11/12 13:37:20;;;;;;;7.78;3.25;;;14.30;98.60;;;;;;6244401;23;20044;-86
2022/11/12 13:40:12;;;;;;;7.32;3.42;;;14.20;99.40;;;;;;6244245;23;20020;-87
2022/11/12 13:43:03;;;;;;;6.10;2.95;;;14.20;99.40;;;;;;6242342;22;20092;-82
2022/11/12 13:46:09;;;;;;;6.40;3.25;;;14.20;99.40;;;;;;6259607;23;20067;-81
2022/11/12 13:48:57;;;;;;;;;;;14.20;99.80;;;;;;6261270;23;20019;-82
2022/11/12 13:51:50;;;;;;;6.93;3.30;;;14.20;99.90;;;;;;6261249;23;19910;-83
2022/11/12 13:54:37;;;;;;;6.75;3.25;;;14.20;99.90;;;;;;6263634;23;20023;-82
2022/11/12 13:57:25;;;;;;;4.75;2.95;;;14.20;99.90;;;;;;6268232;23;20101;-83
2022/11/12 14:00:16;;;;;;;10.98;3.08;;;14.20;99.90;;;;;;6269271;23;20035;-82
2022/11/12 14:03:06;;;;;;;13.27;3.85;;;14.20;99.90;;;;;;6269132;23;20047;-81
2022/11/12 14:05:51;;;;;;;6.85;3.35;;;14.20;99.90;;;;;;6270510;23;20547;-82
2022/11/12 14:08:47;;;;;;;6.72;3.85;;;14.10;99.90;;;;;;6270190;23;20018;-82
2022/11/12 14:11:55;;;;;;;8.07;3.40;;;14.10;99.90;;;;;;6268080;23;20015;-82
2022/11/12 14:15:18;;;;;;;9.80;4.07;;;14.10;99.90;;;;;;6268845;23;20019;-82
2022/11/12 14:18:25;;;;;;;10.18;3.83;;;14.10;99.90;;;;;;6264098;23;20019;-80
2022/11/12 14:21:15;;;;;;;8.05;4.20;;;14.00;99.90;;;;;;6267778;23;20023;-82
2022/11/12 14:24:01;;;;;;;9.45;4.35;;;13.90;99.90;;;;;;6266646;23;20076;-80
2022/11/12 14:26:46;;;;;;;9.50;3.72;;;13.90;99.90;;;;;;6265575;23;20132;-79
2022/11/12 14:29:30;;;;;;;6.45;4.22;;;13.80;99.90;;;;;;6260063;23;20019;-81
2022/11/12 14:32:15;;;;;;;6.35;4.40;;;13.80;99.90;;;;;;6259478;23;20089;-82
2022/11/12 14:34:59;;;;;;;7.70;4.07;;;13.70;99.90;;;;;;6256508;23;20167;-80
2022/11/12 14:38:05;;;;;;;7.13;4.20;;;13.60;99.90;;;;;;6268310;22;20022;-80
2022/11/12 14:40:55;;;;;;;7.75;4.25;;;13.50;99.90;;;;;;6272847;22;20038;-79
2022/11/12 14:43:49;;;;;;;15.13;4.55;;;13.50;99.90;;;;;;6271857;22;20039;-80
2022/11/12 14:46:38;;;;;;;8.35;4.15;;;13.40;99.90;;;;;;6267086;23;20043;-80
2022/11/12 14:49:39;;;;;;;7.55;4.63;;;13.30;99.90;;;;;;6256171;23;20026;-82
2022/11/12 14:52:31;;;;;;;8.25;4.45;;;13.20;99.90;;;;;;6254183;23;20031;-80
2022/11/12 14:55:19;;;;;;;8.98;4.78;;;13.20;99.90;;;;;;6255785;23;20038;-81
2022/11/12 14:58:04;;;;;;;13.20;4.75;;;13.10;99.90;;;;;;6254177;23;20015;-81
2022/11/12 15:00:51;;;;;;;12.48;5.07;;;13.00;99.90;;;;;;6262471;23;20335;-80
2022/11/12 15:03:36;;;;;;;9.10;4.82;;;12.90;99.90;;;;;;6267062;23;20059;-80
2022/11/12 15:06:31;;;;;;;10.40;5.65;;;12.80;99.90;;;;;;6265998;23;20003;-81
2022/11/12 15:09:20;;;;;;;12.93;5.00;;;12.80;99.90;;;;;;6265601;23;20047;-80
2022/11/12 15:12:13;;;;;;;11.07;6.10;;;12.70;99.90;;;;;;6262516;23;20023;-82
2022/11/12 15:15:23;;;;;;;10.57;5.55;;;12.60;99.90;;;;;;6262415;23;20030;-80
2022/11/12 15:18:19;;;;;;;23.25;6.10;;;12.50;99.90;;;;;;6263436;23;20027;-80
2022/11/12 15:21:09;;;;;;;10.55;5.68;;;12.40;99.90;;;;;;6265531;23;20401;-80
2022/11/12 15:24:04;;;;;;;12.07;5.95;;;12.40;99.90;;;;;;6258391;23;20039;-82
2022/11/12 15:26:49;;;;;;;12.75;5.82;;;12.30;99.90;;;;;;6256364;23;20027;-80
2022/11/12 15:29:34;;;;;;;11.82;5.95;;;12.30;99.90;;;;;;6259671;23;20018;-80
2022/11/12 15:32:19;;;;;;;;;;;12.20;99.90;;;;;;6263081;23;20019;-82
2022/11/12 15:35:04;;;;;;;9.02;5.07;;;12.10;99.90;;;;;;6257243;23;19910;-80
2022/11/12 15:37:48;;;;;;;10.75;4.55;;;12.00;99.90;;;;;;6257069;23;20122;-81
2022/11/12 15:40:42;;;;;;;11.82;4.82;;;12.00;99.90;;;;;;6258562;23;20077;-80
2022/11/12 15:43:41;;;;;;;8.82;4.65;;;11.90;99.90;;;;;;6261597;23;20361;-80
2022/11/12 15:46:26;;;;;;;10.27;5.57;;;11.80;99.90;;;;;;6259502;23;20031;-83
2022/11/12 15:49:12;;;;;;;12.52;4.88;;;11.80;99.90;;;;;;6266981;23;20023;-80
2022/11/12 15:51:56;;;;;;;8.15;4.65;;;11.70;99.90;;;;;;6268160;23;20007;-80
2022/11/12 15:54:40;;;;;;;6.57;4.28;;;11.60;99.90;;;;;;6267175;23;20084;-79
2022/11/12 15:57:28;;;;;;;11.48;5.32;;;11.60;99.90;;;;;;6264874;23;20059;-80
2022/11/12 16:00:15;;;;;;;11.15;5.45;;;11.50;99.90;;;;;;6269254;23;20047;-81
2022/11/12 16:03:18;;;;;;;12.02;5.97;;;11.50;99.90;;;;;;6264762;23;20096;-80
2022/11/12 16:06:03;;;;;;;10.85;5.63;;;11.40;99.90;;;;;;6260549;23;20085;-82
2022/11/12 16:08:47;;;;;;;;;;;11.40;99.90;;;;;;6263162;23;20062;-79
2022/11/12 16:11:35;;;;;;;15.68;6.45;;;11.30;99.90;;;;;;6270836;23;19940;-80
2022/11/12 16:14:19;;;;;;;15.95;6.55;;;11.30;99.90;;;;;;6270450;22;20059;-79
2022/11/12 16:17:05;;;;;;;18.30;7.38;;;11.30;99.90;;;;;;6270300;23;20046;-81
2022/11/12 16:19:49;;;;;;;17.15;7.60;;;11.20;99.90;;;;;;6268511;23;20023;-80
2022/11/12 16:22:33;;;;;;;11.82;6.97;;;11.10;99.90;;;;;;6268785;23;20112;-81
2022/11/12 16:25:19;;;;;;;14.95;8.60;;;11.10;99.90;;;;;;6271368;23;20006;-80
2022/11/12 16:28:08;;;;;;;21.77;10.32;;;11.00;99.90;;;;;;6270005;22;20046;-79
2022/11/12 16:30:52;;;;;;;19.55;8.63;;;11.00;99.90;;;;;;6267304;23;20018;-80
2022/11/12 16:33:37;;;;;;;15.00;8.13;;;10.90;99.90;;;;;;6264389;23;20042;-81
2022/11/12 16:36:22;;;;;;;27.27;13.05;;;10.90;99.90;;;;;;6264317;23;20114;-84
2022/11/12 16:39:08;;;;;;;25.30;10.97;;;10.80;99.90;;;;;;6265949;23;20094;-81
2022/11/12 16:41:53;;;;;;;18.90;8.10;;;10.80;99.90;;;;;;6273280;22;20065;-80
2022/11/12 16:44:38;;;;;;;18.58;9.02;;;10.70;99.90;;;;;;6273557;22;20035;-81
2022/11/12 16:47:22;;;;;;;19.90;9.15;;;10.60;99.90;;;;;;6273919;22;20027;-81
2022/11/12 16:50:10;;;;;;;18.17;9.48;;;10.70;99.90;;;;;;6272614;22;20023;-81
2022/11/12 16:52:54;;;;;;;18.73;9.20;;;10.60;99.90;;;;;;6273268;22;20027;-80
2022/11/12 16:55:39;;;;;;;21.50;10.68;;;10.60;99.90;;;;;;6273432;22;20060;-81
2022/11/12 16:58:24;;;;;;;23.80;12.18;;;10.50;99.90;;;;;;6273334;22;20051;-81